Silver Spring, Pennsylvania
Current Conditions -  °F | °C
As of 8:53 PM on Thursday 18 Dec 2014 (Local Time) from KLNS Reporting Station
Overcast Overcast  
Wind Chill: 27°   Ceiling: 2900
Heat Index: 35°   Visibility: 10mi
Dew Point: 24°   Wind: 12mph
Humidity: 64%   Direction: 300°WNW
Pressure: 30.06"   Gusts: NA
Location:  40.06°N, 76.43°W
Report Text: KLNS 190153Z 30010KT 10SM OVC029 02/M04 A3006 RMK AO2 SLP183 T00171044
Loading
Personal Weather Stations






























Interactive Weather Map New forecast layout! Learn more

10-Day Weather Forecast

Advertisements
Track Severe Weather on mobile